Time;durP1;ratioP1;P1;durP2;ratioP2;P2;SDS_P1;SDS_P2;PMS_P1;PMS_P2;Temp;Humidity;BMP_temperature;BMP_pressure;BME280_temperature;BME280_humidity;BME280_pressure;Samples;Min_cycle;Max_cycle;Signal;HPM_P1;HPM_P2
2022/07/05 00:00:28;;;;;;;5.70;3.30;;;;;;;22.12;45.53;100178.80;1446935;89;21621;-82
2022/07/05 00:02:55;;;;;;;4.10;3.27;;;;;;;22.10;45.61;100184.44;1455150;88;21617;-82
2022/07/05 00:05:23;;;;;;;5.30;3.50;;;;;;;22.07;45.88;100185.71;1470532;88;21567;-82
2022/07/05 00:07:50;;;;;;;5.92;3.58;;;;;;;22.05;46.14;100178.91;1472551;88;21493;-82
2022/07/05 00:10:17;;;;;;;4.97;3.25;;;;;;;22.05;46.24;100183.77;1458035;89;21418;-82
2022/07/05 00:12:45;;;;;;;5.80;3.25;;;;;;;22.06;46.37;100186.74;1478488;88;22506;-82
2022/07/05 00:15:12;;;;;;;4.42;3.50;;;;;;;22.05;46.63;100189.16;1470878;88;21958;-82
2022/07/05 00:17:39;;;;;;;6.37;3.37;;;;;;;22.04;46.58;100190.74;1477610;87;21784;-82
2022/07/05 00:20:08;;;;;;;4.37;3.52;;;;;;;22.00;46.73;100184.15;1472855;87;21479;-82
2022/07/05 00:22:35;;;;;;;8.13;4.40;;;;;;;21.93;47.05;100179.39;1552071;88;21362;-82
2022/07/05 00:25:03;;;;;;;3.80;3.42;;;;;;;21.85;47.02;100181.34;1424183;89;21206;-82
2022/07/05 00:27:30;;;;;;;4.62;3.02;;;;;;;21.80;46.94;100184.41;1400973;87;21176;-83
2022/07/05 00:29:58;;;;;;;5.15;3.77;;;;;;;21.76;46.79;100180.55;1404302;87;21316;-82
2022/07/05 00:32:25;;;;;;;4.33;3.80;;;;;;;21.75;46.78;100182.92;1464973;87;21301;-84
2022/07/05 00:34:52;;;;;;;5.47;2.92;;;;;;;21.73;46.80;100179.13;1403719;87;21264;-82
2022/07/05 00:37:19;;;;;;;6.95;3.40;;;;;;;21.70;46.96;100170.16;1395005;87;21324;-82
2022/07/05 00:39:47;;;;;;;5.97;3.25;;;;;;;21.68;46.88;100168.20;1562660;87;21258;-81
2022/07/05 00:42:14;;;;;;;6.03;3.15;;;;;;;21.63;46.93;100169.40;1410529;87;21242;-81
2022/07/05 00:44:42;;;;;;;4.15;3.25;;;;;;;21.55;47.02;100167.86;1411372;87;22220;-82
2022/07/05 00:47:11;;;;;;;5.67;3.22;;;;;;;21.53;47.23;100174.52;1493030;87;21522;-82
2022/07/05 00:49:41;;;;;;;3.17;2.87;;;;;;;21.52;47.22;100172.35;1456350;86;21212;-82
2022/07/05 00:52:09;;;;;;;4.78;3.00;;;;;;;21.48;47.53;100171.67;1404317;88;21242;-82
2022/07/05 00:54:38;;;;;;;6.45;3.50;;;;;;;21.48;47.84;100179.22;1384231;89;21362;-82
2022/07/05 00:57:06;;;;;;;4.47;3.42;;;;;;;21.48;47.75;100167.09;1468254;87;21375;-81
2022/07/05 00:59:34;;;;;;;5.30;3.30;;;;;;;;;;1457685;88;21301;-81
2022/07/05 01:02:01;;;;;;;3.90;3.10;;;;;;;;;;1491281;86;21587;-81
2022/07/05 01:04:28;;;;;;;7.83;3.15;;;;;;;21.45;47.82;100165.39;1485960;86;21938;-81
2022/07/05 01:06:57;;;;;;;3.65;3.00;;;;;;;21.39;48.10;100165.77;1446304;88;21486;-82
2022/07/05 01:09:24;;;;;;;4.08;3.40;;;;;;;21.36;48.10;100171.57;1432366;90;21572;-82
2022/07/05 01:11:52;;;;;;;4.90;2.90;;;;;;;21.34;48.19;100173.66;1471315;87;22852;-82
2022/07/05 01:14:22;;;;;;;8.68;3.33;;;;;;;21.33;48.51;100165.29;1449970;89;21427;-81
2022/07/05 01:16:50;;;;;;;;;;;;;;;21.35;48.51;100169.41;1452789;89;21559;-83
2022/07/05 01:19:19;;;;;;;5.90;3.50;;;;;;;21.34;48.63;100173.13;1428872;90;20465;-83
2022/07/05 01:21:49;;;;;;;3.20;2.90;;;;;;;21.34;48.38;100175.00;1466934;88;21523;-82
2022/07/05 01:24:18;;;;;;;8.00;3.65;;;;;;;21.34;48.34;100173.66;1462546;87;21383;-82
2022/07/05 01:26:50;;;;;;;5.80;3.65;;;;;;;21.34;48.47;100168.27;1479092;87;21382;-82
2022/07/05 01:29:18;;;;;;;3.95;3.37;;;;;;;21.34;48.44;100169.61;1476092;88;22408;-81
2022/07/05 01:31:45;;;;;;;4.35;3.62;;;;;;;21.36;48.79;100167.53;1474571;87;21382;-81
2022/07/05 01:34:12;;;;;;;5.53;3.77;;;;;;;21.36;49.21;100164.84;1482922;87;21411;-81
2022/07/05 01:36:39;;;;;;;7.03;3.65;;;;;;;21.36;49.52;100162.15;1473185;87;21485;-81
2022/07/05 01:39:08;;;;;;;6.92;3.30;;;;;;;21.35;49.19;100165.90;1484297;87;21389;-82
2022/07/05 01:41:36;;;;;;;6.65;3.12;;;;;;;21.31;49.27;100165.50;1395732;88;21323;-81
2022/07/05 01:44:04;;;;;;;3.12;2.83;;;;;;;21.28;49.56;100161.91;1540060;87;21234;-82
2022/07/05 01:46:36;;;;;;;9.10;3.12;;;;;;;21.26;49.27;100161.83;1387343;88;22299;-82
2022/07/05 01:49:06;;;;;;;6.75;3.35;;;;;;;21.21;49.06;100167.09;1395705;89;21302;-82
2022/07/05 01:51:41;;;;;;;3.93;3.63;;;;;;;21.20;48.97;100164.90;1491414;87;21301;-82
2022/07/05 01:54:08;;;;;;;6.55;3.30;;;;;;;21.20;49.06;100167.59;1397960;89;21435;-81
2022/07/05 01:56:38;;;;;;;5.83;3.80;;;;;;;21.15;49.05;100166.94;1399935;88;22735;-82
2022/07/05 01:59:07;;;;;;;6.33;3.65;;;;;;;21.07;49.57;100164.53;1431051;86;21434;-82
2022/07/05 02:01:37;;;;;;;11.40;3.98;;;;;;;20.98;49.78;100165.87;1425755;87;22384;-85
2022/07/05 02:04:07;;;;;;;4.05;3.25;;;;;;;20.92;49.96;100168.92;1476809;87;21618;-83
2022/07/05 02:06:34;;;;;;;4.53;3.92;;;;;;;20.86;50.34;100163.09;1492773;86;22549;-82
2022/07/05 02:09:05;;;;;;;4.33;3.67;;;;;;;20.80;50.48;100163.98;1484194;87;23357;-82
2022/07/05 02:11:32;;;;;;;7.90;3.40;;;;;;;20.76;51.10;100163.28;1484917;87;22440;-83
2022/07/05 02:13:59;;;;;;;7.23;5.17;;;;;;;20.75;50.79;100167.03;1473742;88;21457;-83
2022/07/05 02:16:28;;;;;;;6.60;3.67;;;;;;;20.74;50.98;100163.49;1473361;88;22410;-83
2022/07/05 02:18:56;;;;;;;5.93;3.73;;;;;;;20.73;51.35;100166.70;1466872;87;21338;-83
2022/07/05 02:21:23;;;;;;;5.73;3.40;;;;;;;20.74;51.98;100172.91;1469655;87;21434;-83
2022/07/05 02:23:50;;;;;;;4.80;3.73;;;;;;;20.73;51.87;100172.09;1460006;88;22358;-83
2022/07/05 02:26:18;;;;;;;5.50;3.47;;;;;;;20.75;51.91;100169.72;1487027;87;21345;-82
2022/07/05 02:28:46;;;;;;;6.77;3.80;;;;;;;20.72;51.77;100162.38;1485658;86;21454;-83
2022/07/05 02:31:13;;;;;;;4.73;4.00;;;;;;;20.71;52.07;100163.44;1487226;87;21278;-83
2022/07/05 02:33:40;;;;;;;9.33;4.03;;;;;;;20.66;51.76;100160.58;1480142;87;21353;-82
2022/07/05 02:36:10;;;;;;;7.23;4.00;;;;;;;20.66;51.83;100165.14;1469983;87;21871;-85
2022/07/05 02:38:37;;;;;;;5.90;3.95;;;;;;;20.65;52.32;100164.29;1478922;87;22780;-83
2022/07/05 02:41:07;;;;;;;7.53;4.30;;;;;;;20.62;52.09;100164.73;1489576;86;21433;-82
2022/07/05 02:43:34;;;;;;;6.17;3.52;;;;;;;20.62;51.75;100158.02;1497706;86;22394;-83
2022/07/05 02:46:03;;;;;;;7.50;4.00;;;;;;;20.62;51.89;100153.98;1489407;86;22445;-83
2022/07/05 02:48:31;;;;;;;8.57;5.30;;;;;;;20.60;52.01;100155.23;1489564;87;21345;-82
2022/07/05 02:50:58;;;;;;;4.63;3.53;;;;;;;20.59;52.14;100158.45;1496304;87;21404;-82
2022/07/05 02:53:26;;;;;;;8.10;3.80;;;;;;;20.59;52.07;100162.48;1495712;87;21545;-82
2022/07/05 02:55:54;;;;;;;4.07;3.67;;;;;;;20.63;52.44;100165.55;1484762;86;21353;-82
2022/07/05 02:58:21;;;;;;;9.30;3.70;;;;;;;20.63;52.75;100168.23;1488762;86;22304;-82
2022/07/05 03:00:49;;;;;;;4.50;3.77;;;;;;;20.65;53.00;100164.29;1503069;87;22298;-82
2022/07/05 03:03:17;;;;;;;5.37;3.43;;;;;;;20.66;53.18;100165.95;1495510;87;21449;-82
2022/07/05 03:05:44;;;;;;;4.87;3.77;;;;;;;20.65;53.23;100163.47;1500391;87;23304;-82
2022/07/05 03:08:11;;;;;;;6.83;3.53;;;;;;;20.61;53.13;100167.66;1481018;87;22284;-82
2022/07/05 03:10:39;;;;;;;6.73;3.73;;;;;;;20.61;53.13;100177.89;1476805;87;21397;-82
2022/07/05 03:13:07;;;;;;;10.53;3.83;;;;;;;20.59;53.51;100185.34;1478065;88;21397;-82
2022/07/05 03:15:34;;;;;;;6.70;3.70;;;;;;;20.55;53.51;100186.83;1481614;88;21434;-81
2022/07/05 03:18:01;;;;;;;11.67;3.70;;;;;;;20.51;53.55;100184.23;1480342;86;23077;-82
2022/07/05 03:20:28;;;;;;;6.50;3.90;;;;;;;20.51;53.37;100184.23;1498677;86;21375;-83
2022/07/05 03:22:55;;;;;;;8.60;3.53;;;;;;;20.50;53.33;100187.97;1494367;86;21455;-83
2022/07/05 03:25:22;;;;;;;7.70;4.07;;;;;;;20.51;53.39;100189.11;1483303;86;21330;-83
2022/07/05 03:27:50;;;;;;;7.43;3.70;;;;;;;20.54;53.29;100189.20;1499402;86;21396;-82
2022/07/05 03:30:17;;;;;;;4.33;3.77;;;;;;;20.57;53.83;100191.48;1496953;86;22306;-83
2022/07/05 03:32:44;;;;;;;6.70;3.60;;;;;;;20.57;53.82;100191.48;1491581;86;21501;-82
2022/07/05 03:35:11;;;;;;;8.20;4.33;;;;;;;20.61;54.23;100191.33;1492927;86;22483;-83
2022/07/05 03:37:39;;;;;;;11.25;4.62;;;;;;;20.66;54.57;100192.03;1500499;86;21448;-82
2022/07/05 03:40:07;;;;;;;13.37;4.83;;;;;;;20.69;55.44;100189.72;1500519;86;21433;-83
2022/07/05 03:42:35;;;;;;;8.85;3.98;;;;;;;20.70;55.37;100192.70;1495155;86;21447;-83
2022/07/05 03:45:04;;;;;;;10.97;4.30;;;;;;;20.76;55.22;100190.17;1470012;87;21455;-82
2022/07/05 03:47:31;;;;;;;10.57;4.33;;;;;;;20.78;55.27;100190.79;1474140;87;21453;-82
2022/07/05 03:49:58;;;;;;;9.73;4.15;;;;;;;20.83;55.62;100194.96;1466372;88;21367;-83
2022/07/05 03:52:25;;;;;;;9.20;3.90;;;;;;;20.87;55.29;100199.69;1483965;86;21397;-82
2022/07/05 03:54:52;;;;;;;5.70;3.83;;;;;;;20.93;54.89;100200.67;1490928;86;22211;-83
2022/07/05 03:57:20;;;;;;;9.23;3.98;;;;;;;20.97;54.72;100197.83;1492611;87;22351;-81
2022/07/05 03:59:47;;;;;;;5.60;3.62;;;;;;;21.01;54.34;100200.40;1486968;86;22987;-82
2022/07/05 04:02:15;;;;;;;6.40;3.80;;;;;;;21.05;53.81;100201.59;1451118;87;22284;-83
2022/07/05 04:04:42;;;;;;;8.95;3.37;;;;;;;21.11;53.67;100202.04;1485711;86;21456;-83
2022/07/05 04:07:09;;;;;;;9.38;4.72;;;;;;;21.19;53.67;100201.75;1457760;88;21404;-90
2022/07/05 04:09:36;;;;;;;10.48;5.00;;;;;;;21.26;54.14;100198.17;1462308;88;22188;-90
2022/07/05 04:12:05;;;;;;;4.58;3.67;;;;;;;21.34;54.62;100196.53;1442831;89;21359;-89
2022/07/05 04:14:33;;;;;;;5.28;3.90;;;;;;;21.38;54.38;100186.48;1479198;87;21375;-91
2022/07/05 04:17:00;;;;;;;8.25;4.45;;;;;;;21.48;54.52;100185.13;1481613;87;21567;-89
2022/07/05 04:19:27;;;;;;;13.15;5.65;;;;;;;21.59;54.48;100182.50;1479603;87;21382;-88
2022/07/05 04:21:54;;;;;;;7.00;3.98;;;;;;;21.69;55.20;100178.45;1455328;88;22504;-88
2022/07/05 04:24:22;;;;;;;7.45;4.33;;;;;;;21.77;54.75;100178.14;1487601;87;22320;-88
2022/07/05 04:26:49;;;;;;;7.50;3.95;;;;;;;21.84;54.77;100177.02;1494522;87;21300;-88
2022/07/05 04:29:16;;;;;;;12.75;4.45;;;;;;;21.92;53.90;100175.85;1494921;87;21309;-87
2022/07/05 04:31:43;;;;;;;6.85;3.95;;;;;;;22.01;53.29;100177.70;1482235;87;22033;-92
2022/07/05 04:34:10;;;;;;;8.50;4.58;;;;;;;22.16;53.56;100178.66;1481975;87;21404;-90
2022/07/05 04:36:40;;;;;;;14.78;6.20;;;;;;;22.32;53.49;100176.66;1480878;88;21352;-93
2022/07/05 04:39:08;;;;;;;10.05;5.33;;;;;;;22.48;53.15;100180.58;1474310;88;21448;-95
2022/07/05 04:41:35;;;;;;;6.83;4.03;;;;;;;22.67;52.79;100184.83;1485821;87;21448;-91
2022/07/05 04:44:04;;;;;;;4.47;4.03;;;;;;;22.75;52.20;100178.25;1484536;87;21374;-88
2022/07/05 04:46:31;;;;;;;5.15;4.22;;;;;;;22.82;51.87;100175.45;1493429;87;21884;-90
2022/07/05 04:48:58;;;;;;;10.13;4.37;;;;;;;22.84;51.66;100180.06;1489083;87;21338;-91
2022/07/05 04:51:25;;;;;;;7.50;3.98;;;;;;;22.89;51.30;100183.70;1499591;87;22343;-92
2022/07/05 04:53:52;;;;;;;10.98;4.03;;;;;;;22.96;51.55;100183.64;1479933;86;21441;-92
2022/07/05 04:56:19;;;;;;;6.78;4.45;;;;;;;23.02;51.48;100184.05;1466856;87;21396;-88
2022/07/05 04:58:46;;;;;;;9.08;4.67;;;;;;;23.08;51.63;100179.59;1491894;87;22350;-89
2022/07/05 05:01:13;;;;;;;10.13;4.20;;;;;;;23.19;51.88;100184.16;1499225;87;21448;-90
2022/07/05 05:03:40;;;;;;;7.47;4.42;;;;;;;23.29;51.78;100184.36;1488649;87;21463;-88
2022/07/05 05:06:07;;;;;;;9.35;4.45;;;;;;;23.37;51.55;100183.18;1491286;87;21750;-89
2022/07/05 05:08:34;;;;;;;7.10;4.40;;;;;;;23.50;51.50;100183.44;1483260;87;21397;-88
2022/07/05 05:11:02;;;;;;;9.05;4.28;;;;;;;23.50;51.50;100183.44;1497488;87;22357;-89
2022/07/05 05:13:29;;;;;;;8.68;4.70;;;;;;;23.60;51.12;100177.72;1479805;87;21382;-88
2022/07/05 05:15:56;;;;;;;15.23;6.45;;;;;;;23.65;51.03;100183.23;1489562;87;21404;-89
2022/07/05 05:18:26;;;;;;;8.03;5.20;;;;;;;23.84;51.00;100186.58;1467709;88;21368;-88
2022/07/05 05:20:55;;;;;;;34.25;5.97;;;;;;;23.84;51.00;100186.58;1452496;88;21981;-87
2022/07/05 05:23:23;;;;;;;16.20;4.65;;;;;;;23.92;50.82;100188.63;1471461;87;21411;-88
2022/07/05 05:25:50;;;;;;;8.80;4.65;;;;;;;24.01;51.00;100184.47;1488443;87;21441;-83
2022/07/05 05:28:17;;;;;;;10.00;5.80;;;;;;;24.14;50.74;100193.65;1479829;87;21530;-83
2022/07/05 05:30:44;;;;;;;7.80;5.08;;;;;;;24.26;50.69;100173.30;1476018;87;21461;-83
2022/07/05 05:33:11;;;;;;;7.72;4.67;;;;;;;24.36;50.59;100175.34;1486536;87;21375;-86
2022/07/05 05:35:38;;;;;;;8.63;5.05;;;;;;;24.38;50.33;100178.64;1489919;87;21441;-82
2022/07/05 05:38:05;;;;;;;15.75;5.53;;;;;;;24.51;50.51;100183.23;1492268;87;21397;-83
2022/07/05 05:40:33;;;;;;;6.33;4.97;;;;;;;24.69;50.51;100190.28;1493061;86;22591;-85
2022/07/05 05:43:01;;;;;;;12.47;6.05;;;;;;;24.83;50.31;100179.94;1487948;87;21462;-82
2022/07/05 05:45:28;;;;;;;7.83;6.25;;;;;;;25.02;50.16;100183.17;1491173;86;21411;-83
2022/07/05 05:47:59;;;;;;;13.25;6.53;;;;;;;25.20;49.80;100185.65;1501044;86;21405;-83
2022/07/05 05:50:33;;;;;;;7.80;6.40;;;;;;;25.37;49.48;100173.92;1480146;87;21390;-83
2022/07/05 05:53:02;;;;;;;18.37;8.18;;;;;;;25.46;49.28;100179.72;1455704;87;21447;-83
2022/07/05 05:55:31;;;;;;;11.55;6.72;;;;;;;25.66;49.21;100175.39;1490236;87;22292;-83
2022/07/05 05:58:15;;;;;;;8.88;6.92;;;;;;;25.80;49.42;100175.79;1488546;87;22454;-82
2022/07/05 06:00:47;;;;;;;11.25;6.47;;;;;;;26.05;49.10;100173.92;1479223;86;21446;-84
2022/07/05 06:03:13;;;;;;;15.25;7.50;;;;;;;26.24;48.45;100168.96;1483050;86;21360;-84
2022/07/05 06:05:41;;;;;;;11.35;6.67;;;;;;;26.50;48.35;100161.07;1484735;86;21274;-83
2022/07/05 06:08:08;;;;;;;17.00;7.10;;;;;;;26.65;47.44;100163.08;1486401;87;21273;-86
2022/07/05 06:10:35;;;;;;;8.95;6.75;;;;;;;26.91;47.63;100158.09;1473629;87;21339;-84
2022/07/05 06:13:09;;;;;;;7.58;6.78;;;;;;;27.15;47.30;100164.46;1490155;86;21360;-85
2022/07/05 06:15:37;;;;;;;16.25;6.22;;;;;;;27.33;46.84;100165.39;1476878;88;21419;-86
2022/07/05 06:18:06;;;;;;;10.13;6.20;;;;;;;27.38;46.55;100164.60;1489290;86;21501;-87
2022/07/05 06:20:36;;;;;;;11.40;6.25;;;;;;;27.43;45.93;100161.37;1490688;86;21625;-85
2022/07/05 06:23:05;;;;;;;7.40;5.72;;;;;;;27.42;45.67;100161.10;1493882;86;21404;-85
2022/07/05 06:25:33;;;;;;;19.23;6.45;;;;;;;27.38;45.30;100164.60;1487252;86;23440;-85
2022/07/05 06:28:11;;;;;;;10.00;6.35;;;;;;;27.45;45.75;100166.00;1493973;86;22386;-85
2022/07/05 06:30:42;;;;;;;45.40;7.33;;;;;;;27.50;45.52;100165.19;1495829;86;22327;-85
2022/07/05 06:33:09;;;;;;;12.33;5.92;;;;;;;27.65;45.81;100164.45;1477471;87;21397;-85
2022/07/05 06:35:37;;;;;;;9.75;6.37;;;;;;;27.80;45.39;100161.80;1481706;88;21449;-84
2022/07/05 06:38:08;;;;;;;11.63;6.40;;;;;;;27.92;44.63;100160.19;1460841;88;22114;-86
2022/07/05 06:40:39;;;;;;;14.58;6.87;;;;;;;27.95;44.48;100158.84;1476601;87;21552;-86
2022/07/05 06:43:08;;;;;;;10.53;6.87;;;;;;;28.11;44.53;100153.70;1462983;87;21604;-86
2022/07/05 06:45:36;;;;;;;12.60;5.90;;;;;;;28.19;44.45;100155.86;1496689;87;21589;-85
2022/07/05 06:48:09;;;;;;;15.45;7.10;;;;;;;28.37;44.22;100153.69;1490366;86;21619;-85
2022/07/05 06:50:40;;;;;;;12.90;6.05;;;;;;;28.54;44.23;100143.36;1485835;86;21411;-85
2022/07/05 06:53:08;;;;;;;12.88;6.05;;;;;;;28.67;43.94;100138.73;1487956;86;21492;-85
2022/07/05 06:55:36;;;;;;;15.35;5.87;;;;;;;28.82;43.81;100141.16;1481974;87;22823;-84
2022/07/05 06:58:07;;;;;;;7.42;5.97;;;;;;;28.86;42.97;100138.14;1406171;87;22173;-85
2022/07/05 07:00:34;;;;;;;13.05;6.30;;;;;;;28.66;42.69;100138.47;1474224;87;21353;-85
2022/07/05 07:03:02;;;;;;;10.65;6.37;;;;;;;28.77;43.41;100144.17;1486337;87;21382;-86
2022/07/05 07:05:29;;;;;;;11.25;6.95;;;;;;;28.91;43.40;100148.47;1490637;87;21264;-85
2022/07/05 07:10:42;;;;;;;13.70;6.58;;;;;;;29.18;43.07;100146.80;1480193;87;21427;-84
2022/07/05 07:13:09;;;;;;;17.50;5.87;;;;;;;29.15;42.34;100144.64;1475219;87;22416;-84
2022/07/05 07:15:37;;;;;;;14.05;5.70;;;;;;;29.17;42.81;100142.43;1449613;89;21368;-85
2022/07/05 07:18:05;;;;;;;8.15;5.90;;;;;;;29.34;43.08;100139.92;1485599;88;22195;-85
2022/07/05 07:20:32;;;;;;;6.35;5.62;;;;;;;29.48;42.69;100143.67;1484265;87;21403;-84
2022/07/05 07:22:59;;;;;;;8.53;5.70;;;;;;;29.54;42.25;100141.73;1491075;87;21346;-84
2022/07/05 07:25:26;;;;;;;12.18;6.62;;;;;;;29.54;41.72;100135.73;1490700;87;22350;-85
2022/07/05 07:27:55;;;;;;;11.90;4.80;;;;;;;29.45;41.67;100137.42;1494000;87;22269;-85
2022/07/05 07:30:27;;;;;;;8.70;6.47;;;;;;;29.54;42.27;100133.00;1496296;87;21470;-84
2022/07/05 07:32:54;;;;;;;13.13;6.40;;;;;;;29.73;42.21;100137.30;1490081;87;21287;-84
2022/07/05 07:35:21;;;;;;;10.78;4.97;;;;;;;29.85;41.83;100131.50;1471353;88;22908;-85
2022/07/05 07:37:49;;;;;;;9.25;6.03;;;;;;;29.95;41.63;100123.78;1474895;88;22565;-85
2022/07/05 07:40:16;;;;;;;13.15;6.35;;;;;;;30.15;41.62;100124.99;1469026;88;21552;-88
2022/07/05 07:42:43;;;;;;;14.95;6.35;;;;;;;30.34;41.67;100123.78;1478320;87;21412;-92
2022/07/05 07:45:11;;;;;;;10.03;5.83;;;;;;;30.46;41.29;100120.12;1483123;87;21330;-91
2022/07/05 07:47:38;;;;;;;11.20;6.05;;;;;;;30.51;40.67;100125.54;1492386;87;21559;-90
2022/07/05 07:50:06;;;;;;;13.35;5.72;;;;;;;30.67;40.46;100117.19;1487347;87;21507;-90
2022/07/05 07:52:33;;;;;;;11.05;6.08;;;;;;;30.77;39.93;100121.19;1492887;87;21382;-92
2022/07/05 07:55:01;;;;;;;14.00;5.55;;;;;;;30.93;39.62;100114.49;1492653;87;21404;-92
2022/07/05 07:57:29;;;;;;;8.85;5.15;;;;;;;31.11;39.61;100121.66;1480210;87;21470;-91
2022/07/05 07:59:56;;;;;;;14.55;5.33;;;;;;;31.12;39.33;100116.45;1469207;87;21346;-91
2022/07/05 08:02:23;;;;;;;9.10;5.35;;;;;;;31.19;39.35;100113.63;1471239;88;22343;-91
2022/07/05 08:04:51;;;;;;;21.55;5.75;;;;;;;31.34;39.32;100120.81;1463110;86;22312;-91
2022/07/05 08:07:19;;;;;;;9.05;6.33;;;;;;;31.51;39.19;100116.81;1475607;88;21418;-91
2022/07/05 08:09:46;;;;;;;21.00;6.00;;;;;;;31.63;38.89;100122.65;1474235;88;21360;-93
2022/07/05 08:12:13;;;;;;;17.57;6.10;;;;;;;31.55;38.38;100110.44;1470987;88;21413;-91
2022/07/05 08:14:41;;;;;;;8.33;6.35;;;;;;;31.75;38.73;100107.97;1475822;87;23986;-90
2022/07/05 08:17:08;;;;;;;14.60;5.62;;;;;;;31.79;38.48;100106.25;1471553;87;21257;-90
2022/07/05 08:22:23;;;;;;;12.30;4.95;;;;;;;32.09;38.27;100113.77;1479037;88;21435;-93
2022/07/05 08:24:50;;;;;;;9.33;5.05;;;;;;;32.09;37.44;100110.47;1464243;87;21345;-91
2022/07/05 08:27:17;;;;;;;12.40;5.65;;;;;;;32.13;38.02;100109.31;1494117;87;21418;-89
2022/07/05 08:29:45;;;;;;;5.22;4.67;;;;;;;32.22;37.87;100114.35;1488221;87;21419;-91
2022/07/05 08:32:12;;;;;;;10.95;5.20;;;;;;;32.23;37.58;100114.63;1485875;87;22320;-90
2022/07/05 08:34:39;;;;;;;8.63;4.78;;;;;;;32.40;37.61;100113.23;1472580;87;23257;-91
2022/07/05 08:37:07;;;;;;;15.18;5.37;;;;;;;32.52;37.19;100110.88;1482709;88;21345;-92
2022/07/05 08:39:35;;;;;;;13.85;6.00;;;;;;;32.66;37.30;100099.94;1476142;88;22395;-92
2022/07/05 08:42:03;;;;;;;8.88;5.45;;;;;;;32.72;37.23;100098.72;1474048;88;21397;-91
2022/07/05 08:44:35;;;;;;;7.90;4.80;;;;;;;32.89;37.32;100094.02;1478250;87;21656;-90
2022/07/05 08:47:03;;;;;;;12.03;5.35;;;;;;;32.99;36.68;100089.14;1433319;89;21512;-90
2022/07/05 08:49:33;;;;;;;11.73;5.40;;;;;;;32.97;36.04;100094.65;1458527;89;21377;-92
2022/07/05 08:52:07;;;;;;;9.98;5.42;;;;;;;33.17;36.68;100089.33;1442320;89;21543;-91
2022/07/05 08:54:33;;;;;;;9.00;5.25;;;;;;;33.36;36.55;100089.21;1480194;87;21524;-92
2022/07/05 08:57:00;;;;;;;8.38;5.47;;;;;;;33.51;35.79;100087.48;1474899;87;21345;-88
2022/07/05 08:59:27;;;;;;;7.17;4.95;;;;;;;33.68;35.67;100089.03;1490215;87;21331;-90
2022/07/05 09:01:56;;;;;;;15.08;5.28;;;;;;;33.65;34.61;100085.54;1484720;87;21352;-90
2022/07/05 09:04:26;;;;;;;10.20;4.80;;;;;;;33.74;35.15;100087.55;1480396;87;21360;-93
2022/07/05 09:06:55;;;;;;;22.60;6.05;;;;;;;33.76;34.85;100088.86;1487842;86;21470;-94
2022/07/05 09:09:24;;;;;;;;;;;;;;;33.80;34.29;100086.30;1488942;87;21403;-94
2022/07/05 09:11:52;;;;;;;7.03;5.20;;;;;;;33.93;35.18;100079.95;1475318;87;20292;-91
2022/07/05 09:14:25;;;;;;;7.30;4.62;;;;;;;33.99;34.12;100073.20;1481057;87;21909;-94
2022/07/05 09:16:53;;;;;;;8.00;5.60;;;;;;;33.78;34.08;100077.56;1486179;87;22891;-93
2022/07/05 09:19:20;;;;;;;6.05;4.70;;;;;;;33.92;34.90;100070.91;1495606;87;23305;-93
2022/07/05 09:21:47;;;;;;;8.95;5.70;;;;;;;34.04;34.98;100066.82;1486474;86;21411;-92
2022/07/05 09:24:15;;;;;;;12.55;5.00;;;;;;;33.89;34.41;100067.95;1480904;87;21382;-93
2022/07/05 09:26:52;;;;;;;10.03;5.62;;;;;;;33.98;34.72;100063.36;1464760;88;21360;-93
2022/07/05 09:29:20;;;;;;;10.68;5.40;;;;;;;34.01;34.54;100064.64;1491407;86;21403;-94
2022/07/05 09:31:50;;;;;;;15.03;5.30;;;;;;;34.03;34.65;100054.17;1490946;87;21455;-93
2022/07/05 09:34:20;;;;;;;9.05;4.97;;;;;;;34.19;34.53;100056.00;1487454;86;21698;-93
2022/07/05 09:37:03;;;;;;;8.63;5.42;;;;;;;34.21;33.98;100048.24;1494295;86;21555;-94
2022/07/05 09:39:37;;;;;;;9.83;5.30;;;;;;;34.46;34.13;100048.93;1484573;87;21603;-93
2022/07/05 09:42:23;;;;;;;25.52;6.30;;;;;;;34.65;33.23;100047.92;1495354;87;21397;-93
2022/07/05 09:44:58;;;;;;;18.25;5.62;;;;;;;34.51;33.24;100040.55;1461524;88;21375;-93
2022/07/05 09:47:28;;;;;;;13.65;5.65;;;;;;;34.67;33.55;100052.52;1463906;88;21449;-93
2022/07/05 09:50:05;;;;;;;10.53;5.12;;;;;;;34.77;33.50;100045.37;1470714;88;22401;-94
2022/07/05 09:52:37;;;;;;;10.32;5.25;;;;;;;34.80;33.12;100043.35;1470524;88;21590;-93
2022/07/05 09:55:09;;;;;;;10.50;5.90;;;;;;;34.95;33.26;100033.27;1484427;86;22328;-93
2022/07/05 09:57:40;;;;;;;8.38;5.80;;;;;;;34.99;33.39;100038.39;1487833;86;21330;-94
2022/07/05 10:00:11;;;;;;;14.35;5.50;;;;;;;35.20;33.65;100041.92;1488300;86;21368;-93
2022/07/05 10:02:45;;;;;;;9.35;4.78;;;;;;;35.41;33.30;100036.02;1476678;87;22469;-95
2022/07/05 10:05:22;;;;;;;12.63;4.87;;;;;;;35.54;32.45;100037.58;1487146;86;21412;-92
2022/07/05 10:07:57;;;;;;;14.75;5.55;;;;;;;35.67;31.92;100033.28;1484732;87;21381;-94
2022/07/05 10:10:30;;;;;;;10.10;5.87;;;;;;;35.70;31.91;100031.83;1477725;87;21360;-94
2022/07/05 10:13:00;;;;;;;8.25;5.10;;;;;;;35.79;32.51;100034.57;1492932;86;21264;-95
2022/07/05 10:15:31;;;;;;;14.03;5.22;;;;;;;35.77;32.29;100028.60;1489847;86;21382;-93
2022/07/05 10:18:04;;;;;;;8.93;5.17;;;;;;;35.78;32.06;100037.09;1478042;86;21426;-92
2022/07/05 10:20:42;;;;;;;7.05;4.17;;;;;;;35.44;31.38;100030.44;1495462;86;21537;-95
2022/07/05 10:23:18;;;;;;;15.05;5.08;;;;;;;35.17;30.98;100032.38;1478746;86;21381;-92
2022/07/05 10:25:48;;;;;;;10.85;4.78;;;;;;;35.31;31.70;100028.11;1505562;86;21419;-94
2022/07/05 10:28:19;;;;;;;9.88;4.20;;;;;;;35.62;31.59;100024.39;1472792;86;22356;-93
2022/07/05 10:30:51;;;;;;;10.78;5.20;;;;;;;35.70;30.34;100017.49;1494987;86;21265;-94
2022/07/05 10:33:27;;;;;;;11.15;5.28;;;;;;;35.89;30.40;100011.64;1478206;87;21490;-93
2022/07/05 10:35:54;;;;;;;14.80;4.70;;;;;;;35.80;29.81;100012.23;1476323;87;21368;-91
2022/07/05 10:38:22;;;;;;;6.25;4.37;;;;;;;35.86;30.27;100013.67;1482713;87;21322;-93
2022/07/05 10:40:55;;;;;;;13.35;4.72;;;;;;;35.97;30.28;100011.39;1456964;87;21375;-94
2022/07/05 10:43:24;;;;;;;5.28;3.80;;;;;;;36.19;29.86;100008.18;1481959;87;21374;-95
2022/07/05 10:45:52;;;;;;;10.25;4.28;;;;;;;36.34;28.73;99996.06;1483580;87;21367;-94
2022/07/05 10:48:23;;;;;;;5.72;4.28;;;;;;;36.48;27.65;99994.43;1489595;86;21508;-94
2022/07/05 10:51:15;;;;;;;7.30;4.22;;;;;;;36.66;28.11;99991.64;1480685;86;21301;-94
2022/07/05 10:53:56;;;;;;;7.58;3.72;;;;;;;36.83;28.44;99983.27;1487338;87;21271;-94
2022/07/05 10:56:23;;;;;;;5.92;4.00;;;;;;;37.00;28.23;99991.44;1494944;86;22356;-95
2022/07/05 10:59:11;;;;;;;9.73;4.10;;;;;;;37.14;26.87;99988.39;1500205;86;21404;-93
2022/07/05 11:01:41;;;;;;;6.30;4.12;;;;;;;36.95;26.34;99975.05;1505974;86;21345;-93
2022/07/05 11:04:22;;;;;;;9.48;3.90;;;;;;;37.12;26.82;99971.39;1487794;86;21369;-92
2022/07/05 11:06:49;;;;;;;9.68;3.42;;;;;;;37.29;26.07;99977.89;1485746;86;21576;-94
2022/07/05 11:09:19;;;;;;;15.63;4.12;;;;;;;37.42;25.56;99972.09;1495315;86;21633;-95
2022/07/05 11:11:55;;;;;;;7.70;3.40;;;;;;;37.54;25.89;99968.59;1489498;86;21559;-94
2022/07/05 11:14:29;;;;;;;10.38;3.70;;;;;;;37.73;24.87;99963.14;1494604;84;22423;-94
2022/07/05 11:17:15;;;;;;;7.70;3.87;;;;;;;37.73;24.90;99961.77;1488645;86;23231;-95
2022/07/05 11:20:05;;;;;;;9.80;3.35;;;;;;;37.66;24.26;99960.92;1488658;86;22490;-95
2022/07/05 11:22:35;;;;;;;17.85;4.33;;;;;;;37.78;24.91;99961.52;1488258;86;21440;-93
2022/07/05 11:25:05;;;;;;;6.70;3.40;;;;;;;37.89;24.63;99962.70;1496051;86;21353;-96
2022/07/05 11:27:34;;;;;;;9.20;3.58;;;;;;;37.92;24.36;99950.41;1496160;86;21463;-94
2022/07/05 11:30:01;;;;;;;;;;;;;;;37.92;24.41;99949.03;1502831;87;21360;-95
2022/07/05 11:32:34;;;;;;;12.90;4.17;;;;;;;38.06;24.59;99944.56;1487076;86;20288;-93
2022/07/05 11:35:17;;;;;;;10.10;3.80;;;;;;;38.20;23.94;99933.76;1493815;87;22439;-94
2022/07/05 11:38:09;;;;;;;15.00;4.20;;;;;;;38.27;23.51;99933.97;1506257;86;21353;-93